Time;durP1;ratioP1;P1;durP2;ratioP2;P2;SDS_P1;SDS_P2;PMS_P1;PMS_P2;Temp;Humidity;BMP_temperature;BMP_pressure;BME280_temperature;BME280_humidity;BME280_pressure;Samples;Min_cycle;Max_cycle;Signal;HPM_P1;HPM_P2
2023/11/24 00:02:09;;;;;;;14.23;9.57;;;8.20;99.90;;;;;;5010714;28;20841;-75
2023/11/24 00:04:56;;;;;;;14.23;9.70;;;8.20;99.90;;;;;;5007497;28;20441;-74
2023/11/24 00:07:42;;;;;;;11.80;9.17;;;8.20;99.90;;;;;;5004781;28;20429;-75
2023/11/24 00:10:28;;;;;;;11.50;9.20;;;8.20;99.90;;;;;;5010985;28;20427;-74
2023/11/24 00:13:16;;;;;;;14.07;8.90;;;8.30;99.90;;;;;;5010979;28;20451;-75
2023/11/24 00:16:03;;;;;;;12.37;9.30;;;8.20;99.90;;;;;;5010769;28;20450;-74
2023/11/24 00:18:48;;;;;;;15.30;9.97;;;8.20;99.90;;;;;;5014011;28;20521;-75
2023/11/24 00:21:35;;;;;;;13.90;9.20;;;8.20;99.90;;;;;;5014641;28;20431;-75
2023/11/24 00:24:21;;;;;;;11.60;9.03;;;8.20;99.90;;;;;;5009172;28;20451;-75
2023/11/24 00:27:06;;;;;;;13.10;10.13;;;8.20;99.90;;;;;;5014265;28;20527;-75
2023/11/24 00:29:52;;;;;;;12.50;9.00;;;8.20;99.90;;;;;;5010324;28;20446;-75
2023/11/24 00:32:39;;;;;;;14.23;10.30;;;8.20;99.90;;;;;;5014244;28;20564;-74
2023/11/24 00:35:25;;;;;;;13.93;10.23;;;8.10;99.90;;;;;;5012638;28;20560;-75
2023/11/24 00:38:12;;;;;;;15.03;10.30;;;8.10;99.90;;;;;;5013804;28;20568;-75
2023/11/24 00:40:58;;;;;;;14.83;11.37;;;8.10;99.90;;;;;;5005703;28;20436;-75
2023/11/24 00:43:44;;;;;;;13.40;9.50;;;8.10;99.90;;;;;;5008850;28;20491;-75
2023/11/24 00:46:30;;;;;;;12.73;9.70;;;8.20;99.90;;;;;;5012782;28;21015;-75
2023/11/24 00:49:15;;;;;;;12.27;9.57;;;8.20;99.90;;;;;;5013986;28;20595;-75
2023/11/24 00:52:01;;;;;;;9.60;8.10;;;8.20;99.90;;;;;;5013834;28;20432;-75
2023/11/24 00:54:48;;;;;;;15.33;9.73;;;8.30;99.90;;;;;;5013537;28;20511;-75
2023/11/24 00:57:34;;;;;;;11.43;9.10;;;8.30;99.90;;;;;;5012127;28;20579;-75
2023/11/24 01:00:20;;;;;;;11.77;9.60;;;8.30;99.90;;;;;;5013224;28;20450;-75
2023/11/24 01:03:06;;;;;;;10.70;9.33;;;8.30;99.90;;;;;;5013552;28;20435;-75
2023/11/24 01:05:53;;;;;;;11.50;8.03;;;8.30;99.90;;;;;;5013627;28;20434;-75
2023/11/24 01:08:39;;;;;;;9.83;8.33;;;8.30;99.90;;;;;;5013852;28;20494;-75
2023/11/24 01:11:26;;;;;;;12.13;8.73;;;8.30;99.90;;;;;;5013206;28;20432;-75
2023/11/24 01:14:11;;;;;;;13.83;7.57;;;8.30;99.90;;;;;;5013248;28;20438;-75
2023/11/24 01:16:57;;;;;;;11.20;8.80;;;8.30;99.90;;;;;;5009312;28;20511;-75
2023/11/24 01:19:44;;;;;;;10.13;8.80;;;8.30;99.90;;;;;;5012981;28;20479;-75
2023/11/24 01:22:29;;;;;;;9.70;8.30;;;8.30;99.90;;;;;;5013009;28;20590;-74
2023/11/24 01:25:15;;;;;;;10.53;8.60;;;8.40;99.90;;;;;;5013216;28;20539;-76
2023/11/24 01:28:03;;;;;;;11.40;8.00;;;8.40;99.90;;;;;;5012842;28;20431;-75
2023/11/24 01:30:49;;;;;;;9.43;8.10;;;8.40;99.90;;;;;;5006667;28;20422;-75
2023/11/24 01:33:34;;;;;;;10.83;8.53;;;8.50;99.90;;;;;;5007913;28;20444;-75
2023/11/24 01:36:20;;;;;;;10.43;9.33;;;8.50;99.90;;;;;;5012525;28;21165;-75
2023/11/24 01:39:08;;;;;;;10.83;7.73;;;8.50;99.90;;;;;;5012740;28;21016;-75
2023/11/24 01:41:53;;;;;;;11.00;8.30;;;8.50;99.90;;;;;;5013304;28;20407;-75
2023/11/24 01:44:40;;;;;;;11.77;8.70;;;8.50;99.90;;;;;;5012834;28;20847;-75
2023/11/24 01:47:26;;;;;;;10.57;8.20;;;8.50;99.90;;;;;;5012861;28;20434;-75
2023/11/24 01:50:12;;;;;;;13.10;9.40;;;8.50;99.90;;;;;;5006973;28;21007;-76
2023/11/24 01:52:58;;;;;;;10.10;8.37;;;8.50;99.90;;;;;;5012574;28;20958;-75
2023/11/24 01:55:43;;;;;;;11.73;9.33;;;8.50;99.90;;;;;;5013095;28;20486;-75
2023/11/24 01:58:29;;;;;;;13.23;8.90;;;8.50;99.90;;;;;;5011389;28;20494;-75
2023/11/24 02:01:16;;;;;;;13.07;10.30;;;8.50;99.90;;;;;;5015681;28;20489;-74
2023/11/24 02:04:02;;;;;;;8.87;7.97;;;8.50;99.90;;;;;;5008910;28;20929;-75
2023/11/24 02:06:48;;;;;;;9.40;8.23;;;8.60;99.90;;;;;;5001455;28;20435;-74
2023/11/24 02:09:34;;;;;;;12.75;8.30;;;8.60;99.90;;;;;;5011922;28;20451;-74
2023/11/24 02:12:20;;;;;;;9.53;8.10;;;8.60;99.90;;;;;;5011098;28;20219;-74
2023/11/24 02:15:08;;;;;;;9.50;7.37;;;8.60;99.90;;;;;;5012305;28;20483;-74
2023/11/24 02:17:55;;;;;;;8.80;7.43;;;8.60;99.90;;;;;;5012044;28;20483;-75
2023/11/24 02:20:41;;;;;;;9.53;8.10;;;8.60;99.90;;;;;;5012480;28;20330;-74
2023/11/24 02:23:28;;;;;;;10.50;7.60;;;8.60;99.90;;;;;;5006095;28;20427;-75
2023/11/24 02:26:14;;;;;;;12.00;7.60;;;8.70;99.90;;;;;;5011621;28;20481;-74
2023/11/24 02:29:00;;;;;;;12.87;8.47;;;8.70;99.90;;;;;;5012103;28;20493;-74
2023/11/24 02:31:45;;;;;;;12.17;8.20;;;8.70;99.90;;;;;;5006105;28;20478;-74
2023/11/24 02:34:31;;;;;;;8.77;7.53;;;8.70;99.90;;;;;;5010793;28;20948;-74
2023/11/24 02:37:17;;;;;;;9.30;8.27;;;8.70;99.90;;;;;;5018127;28;20430;-74
2023/11/24 02:40:05;;;;;;;13.70;9.83;;;8.70;99.90;;;;;;5007498;28;20638;-74
2023/11/24 02:42:51;;;;;;;9.63;8.67;;;8.70;99.90;;;;;;5006626;28;20434;-75
2023/11/24 02:45:37;;;;;;;10.57;9.40;;;8.70;99.90;;;;;;5011783;28;20515;-74
2023/11/24 02:48:22;;;;;;;10.63;9.20;;;8.80;99.90;;;;;;5011456;28;20458;-74
2023/11/24 02:51:08;;;;;;;10.90;9.90;;;8.80;99.90;;;;;;5011605;28;20498;-74
2023/11/24 02:53:53;;;;;;;14.13;12.40;;;8.80;99.90;;;;;;5011758;28;20946;-74
2023/11/24 02:56:40;;;;;;;13.80;12.30;;;8.80;99.90;;;;;;5009164;28;20431;-75
2023/11/24 02:59:27;;;;;;;9.60;8.60;;;8.80;99.90;;;;;;5010457;28;20848;-74
2023/11/24 03:02:12;;;;;;;7.57;2.90;;;8.90;99.90;;;;;;5013242;28;20427;-76
2023/11/24 03:04:58;;;;;;;5.40;2.90;;;8.80;99.90;;;;;;5012811;28;20436;-76
2023/11/24 03:07:44;;;;;;;6.23;3.40;;;8.80;99.90;;;;;;5012796;28;20449;-75
2023/11/24 03:10:29;;;;;;;11.07;3.17;;;8.70;99.90;;;;;;5013219;28;20493;-75
2023/11/24 03:13:17;;;;;;;4.50;2.10;;;8.60;99.90;;;;;;5013300;28;20442;-76
2023/11/24 03:16:04;;;;;;;10.20;3.23;;;8.50;99.90;;;;;;5008845;28;20430;-76
2023/11/24 03:18:49;;;;;;;7.97;2.47;;;8.50;99.90;;;;;;5012196;28;20937;-76
2023/11/24 03:21:35;;;;;;;9.80;2.47;;;8.60;99.90;;;;;;5013094;28;20798;-76
2023/11/24 03:24:21;;;;;;;11.20;2.20;;;8.50;99.90;;;;;;5012354;28;20482;-76
2023/11/24 03:27:06;;;;;;;11.20;2.70;;;8.50;99.90;;;;;;5012510;28;20435;-76
2023/11/24 03:29:54;;;;;;;9.73;1.80;;;8.60;99.90;;;;;;5012688;28;20809;-76
2023/11/24 03:32:39;;;;;;;5.53;1.90;;;8.50;99.90;;;;;;5011572;28;20427;-76
2023/11/24 03:35:25;;;;;;;11.30;2.20;;;8.50;99.90;;;;;;5012508;28;20548;-76
2023/11/24 03:38:11;;;;;;;12.20;3.13;;;8.50;99.90;;;;;;5012317;28;20936;-76
2023/11/24 03:40:57;;;;;;;13.93;2.40;;;8.40;99.90;;;;;;5007403;28;20473;-76
2023/11/24 03:43:42;;;;;;;13.37;2.03;;;8.50;99.90;;;;;;5013307;28;20479;-76
2023/11/24 03:46:29;;;;;;;10.90;2.67;;;8.50;99.90;;;;;;5012614;28;20446;-74
2023/11/24 03:49:15;;;;;;;13.83;2.77;;;8.40;99.90;;;;;;5006159;28;21013;-76
2023/11/24 03:52:01;;;;;;;13.43;2.40;;;8.40;99.90;;;;;;5013897;28;20902;-76
2023/11/24 03:54:46;;;;;;;3.93;1.43;;;8.30;99.90;;;;;;5016238;28;20954;-76
2023/11/24 03:57:32;;;;;;;8.80;2.27;;;8.30;99.90;;;;;;5016128;28;20438;-76
2023/11/24 04:00:18;;;;;;;9.10;1.83;;;8.30;99.90;;;;;;5016273;28;20556;-76
2023/11/24 04:03:05;;;;;;;9.30;2.10;;;8.20;99.90;;;;;;5016572;28;20450;-76
2023/11/24 04:05:51;;;;;;;9.60;2.40;;;8.20;99.90;;;;;;5009530;28;20801;-76
2023/11/24 04:08:37;;;;;;;9.93;2.27;;;8.20;99.90;;;;;;5016191;28;20451;-76
2023/11/24 04:11:22;;;;;;;10.70;2.40;;;8.30;99.90;;;;;;5014353;28;20986;-76
2023/11/24 04:14:08;;;;;;;8.43;2.67;;;8.30;99.90;;;;;;5004726;28;20810;-76
2023/11/24 04:16:54;;;;;;;17.43;2.60;;;8.20;99.90;;;;;;5013440;28;20513;-76
2023/11/24 04:19:41;;;;;;;8.63;2.03;;;8.20;99.90;;;;;;5016239;28;20475;-76
2023/11/24 04:22:26;;;;;;;11.87;2.60;;;8.20;99.90;;;;;;5026413;28;20424;-74
2023/11/24 04:25:12;;;;;;;12.63;2.60;;;8.20;99.90;;;;;;5037368;28;20539;-74
2023/11/24 04:27:59;;;;;;;16.70;2.57;;;8.10;99.90;;;;;;5037733;28;20447;-75
2023/11/24 04:30:45;;;;;;;11.13;2.73;;;8.00;99.90;;;;;;5024525;28;20463;-75
2023/11/24 04:33:30;;;;;;;11.57;2.40;;;8.10;99.90;;;;;;5015167;28;20431;-76
2023/11/24 04:36:18;;;;;;;16.90;3.50;;;8.10;99.90;;;;;;5015636;28;20454;-75
2023/11/24 04:39:03;;;;;;;11.33;3.30;;;8.10;99.90;;;;;;5010191;28;20452;-74
2023/11/24 04:41:49;;;;;;;13.10;2.47;;;8.00;99.90;;;;;;5012282;28;20487;-76
2023/11/24 04:44:35;;;;;;;9.27;3.03;;;8.00;99.90;;;;;;5016012;28;20443;-76
2023/11/24 04:47:20;;;;;;;9.33;2.60;;;8.00;99.90;;;;;;5015815;28;20439;-75
2023/11/24 04:50:07;;;;;;;10.70;2.60;;;7.90;99.90;;;;;;5016101;28;20474;-75
2023/11/24 04:52:54;;;;;;;5.27;2.30;;;7.80;99.90;;;;;;5010556;28;20427;-76
2023/11/24 04:55:39;;;;;;;13.30;3.10;;;7.80;99.90;;;;;;5013472;28;20428;-76
2023/11/24 04:58:25;;;;;;;10.30;2.77;;;7.80;99.90;;;;;;5013569;28;20843;-76
2023/11/24 05:01:12;;;;;;;15.50;2.40;;;7.70;99.90;;;;;;5015975;28;20525;-76
2023/11/24 05:03:59;;;;;;;12.53;2.37;;;7.70;99.90;;;;;;5008844;28;20433;-76
2023/11/24 05:06:44;;;;;;;11.67;2.10;;;7.70;99.90;;;;;;5015354;28;20481;-76
2023/11/24 05:09:32;;;;;;;9.33;2.47;;;7.60;99.90;;;;;;5015242;28;20816;-76
2023/11/24 05:12:17;;;;;;;42.60;4.27;;;7.60;99.90;;;;;;5012560;28;20577;-74
2023/11/24 05:15:05;;;;;;;13.70;2.47;;;7.60;99.90;;;;;;5011371;28;20785;-77
2023/11/24 05:17:51;;;;;;;13.70;2.60;;;7.50;99.90;;;;;;5009247;28;20438;-75
2023/11/24 05:20:36;;;;;;;10.50;3.00;;;7.40;99.90;;;;;;5014420;28;20490;-74
2023/11/24 05:23:22;;;;;;;10.20;3.00;;;7.40;99.90;;;;;;5014456;28;20438;-76
2023/11/24 05:26:09;;;;;;;12.73;3.20;;;7.30;99.90;;;;;;5014589;28;20512;-76
2023/11/24 05:28:55;;;;;;;11.00;2.90;;;7.30;99.90;;;;;;5014324;28;20470;-75
2023/11/24 05:31:40;;;;;;;14.17;2.80;;;7.20;99.90;;;;;;5005497;28;20418;-74
2023/11/24 05:34:26;;;;;;;24.77;3.13;;;7.30;99.90;;;;;;5012762;28;20950;-74
2023/11/24 05:37:12;;;;;;;11.03;2.60;;;7.30;99.90;;;;;;5012980;28;20482;-74
2023/11/24 05:39:58;;;;;;;13.35;2.88;;;7.20;99.90;;;;;;5005495;28;20512;-74
2023/11/24 05:42:45;;;;;;;10.27;3.53;;;7.20;99.90;;;;;;5005110;28;20207;-74
2023/11/24 05:45:34;;;;;;;11.00;2.90;;;7.10;99.90;;;;;;5012764;28;20202;-74
2023/11/24 05:48:19;;;;;;;13.70;3.00;;;7.10;99.90;;;;;;5005669;28;20934;-74
2023/11/24 05:51:05;;;;;;;24.33;3.92;;;7.10;99.90;;;;;;5013192;28;20211;-74
2023/11/24 05:53:51;;;;;;;29.05;4.78;;;7.10;99.90;;;;;;5006766;28;20290;-75
2023/11/24 05:56:38;;;;;;;15.98;3.47;;;7.20;99.90;;;;;;5012352;28;20214;-74
2023/11/24 05:59:25;;;;;;;18.53;3.67;;;7.30;99.90;;;;;;5012359;28;20240;-74
2023/11/24 06:02:10;;;;;;;11.80;4.40;;;7.30;99.90;;;;;;5017391;28;20441;-74
2023/11/24 06:04:56;;;;;;;15.88;3.20;;;7.20;99.90;;;;;;5000201;28;20439;-74
2023/11/24 06:07:41;;;;;;;20.13;4.23;;;7.20;99.90;;;;;;5012421;28;20307;-74
2023/11/24 06:10:27;;;;;;;16.53;3.37;;;7.20;99.90;;;;;;5012639;28;20424;-75
2023/11/24 06:13:13;;;;;;;14.87;3.97;;;7.20;99.90;;;;;;5012297;28;20546;-74
2023/11/24 06:16:00;;;;;;;13.60;4.03;;;7.20;99.90;;;;;;5006664;28;20482;-74
2023/11/24 06:18:46;;;;;;;13.63;3.67;;;7.20;99.90;;;;;;5012408;28;20454;-74
2023/11/24 06:21:31;;;;;;;19.00;4.00;;;7.20;99.90;;;;;;5011831;28;21308;-74
2023/11/24 06:24:17;;;;;;;27.75;3.45;;;7.30;99.90;;;;;;5012296;28;20434;-74
2023/11/24 06:27:04;;;;;;;14.40;3.53;;;7.30;99.90;;;;;;5007355;28;20215;-74
2023/11/24 06:29:50;;;;;;;19.60;4.23;;;7.30;99.90;;;;;;5012278;28;20560;-74
2023/11/24 06:32:37;;;;;;;12.43;3.30;;;7.30;99.90;;;;;;5012120;28;20967;-74
2023/11/24 06:35:23;;;;;;;25.17;4.05;;;7.30;99.90;;;;;;5011954;28;20447;-74
2023/11/24 06:38:08;;;;;;;18.75;3.58;;;7.30;99.90;;;;;;5011483;28;20579;-74
2023/11/24 06:40:54;;;;;;;11.23;3.10;;;7.30;99.90;;;;;;5007597;28;20598;-74
2023/11/24 06:43:39;;;;;;;18.40;4.07;;;7.30;99.90;;;;;;5011811;28;20210;-74
2023/11/24 06:46:26;;;;;;;18.08;3.40;;;7.30;99.90;;;;;;5011666;28;20430;-74
2023/11/24 06:49:13;;;;;;;17.85;3.15;;;7.30;99.90;;;;;;5012230;28;20724;-73
2023/11/24 06:52:01;;;;;;;21.63;3.40;;;7.30;99.90;;;;;;5006963;28;20208;-74
2023/11/24 06:54:46;;;;;;;26.88;3.95;;;7.30;99.90;;;;;;5010348;28;20426;-73
2023/11/24 06:57:32;;;;;;;27.90;4.77;;;7.30;99.90;;;;;;5013034;28;20221;-74
2023/11/24 07:00:20;;;;;;;15.70;2.80;;;7.40;99.90;;;;;;5018064;28;20469;-74
2023/11/24 07:03:06;;;;;;;13.10;3.40;;;7.40;99.90;;;;;;5007547;28;20508;-74
2023/11/24 07:05:53;;;;;;;23.23;3.30;;;7.50;99.90;;;;;;5011459;28;20434;-74
2023/11/24 07:08:39;;;;;;;14.40;2.63;;;7.50;99.90;;;;;;5010732;28;20517;-74
2023/11/24 07:11:24;;;;;;;11.83;3.20;;;7.50;99.90;;;;;;5010983;28;20788;-74
2023/11/24 07:14:11;;;;;;;15.10;3.07;;;7.50;99.90;;;;;;5011689;28;20434;-74
2023/11/24 07:16:56;;;;;;;11.77;3.43;;;7.50;99.90;;;;;;5006039;28;20481;-74
2023/11/24 07:19:42;;;;;;;16.20;3.03;;;7.50;99.90;;;;;;5011435;28;20455;-74
2023/11/24 07:22:30;;;;;;;29.80;4.03;;;7.60;99.90;;;;;;5011309;28;20440;-75
2023/11/24 07:25:15;;;;;;;11.83;2.43;;;7.50;99.90;;;;;;5011118;28;20427;-74
2023/11/24 07:28:04;;;;;;;19.03;4.30;;;7.50;99.90;;;;;;5010495;28;20422;-74
2023/11/24 07:30:49;;;;;;;16.43;5.70;;;7.50;99.90;;;;;;5011264;28;20419;-75
2023/11/24 07:33:35;;;;;;;17.77;3.33;;;7.60;99.90;;;;;;5011264;28;20458;-74
2023/11/24 07:36:20;;;;;;;9.83;2.50;;;7.50;99.90;;;;;;5011472;28;20431;-74
2023/11/24 07:39:10;;;;;;;18.70;6.85;;;7.50;99.90;;;;;;5007057;28;21088;-74
2023/11/24 07:41:56;;;;;;;20.80;11.30;;;7.40;99.90;;;;;;5008131;28;20358;-74
2023/11/24 07:44:42;;;;;;;19.90;8.03;;;7.40;99.90;;;;;;5010958;28;20431;-74
2023/11/24 07:47:28;;;;;;;18.37;8.10;;;7.50;99.90;;;;;;5010120;28;21007;-75
2023/11/24 07:50:13;;;;;;;18.13;6.20;;;7.50;99.90;;;;;;5011249;28;20421;-74
2023/11/24 07:52:59;;;;;;;15.33;4.13;;;7.50;99.90;;;;;;5006076;28;20473;-74
2023/11/24 07:55:47;;;;;;;12.83;5.20;;;7.60;99.90;;;;;;5009889;28;20430;-74
2023/11/24 07:58:32;;;;;;;17.23;6.07;;;7.50;99.90;;;;;;5011049;28;20475;-75
2023/11/24 08:01:18;;;;;;;25.73;13.20;;;7.60;99.90;;;;;;5010944;28;20506;-75
2023/11/24 08:04:04;;;;;;;16.80;4.67;;;7.60;99.90;;;;;;5005424;28;20427;-74
2023/11/24 08:06:50;;;;;;;19.93;5.17;;;7.60;99.90;;;;;;5014682;28;20428;-74
2023/11/24 08:09:36;;;;;;;17.87;3.27;;;7.60;99.90;;;;;;5010625;28;20641;-74
2023/11/24 08:12:23;;;;;;;17.97;4.20;;;7.60;99.90;;;;;;5008948;28;20449;-74
2023/11/24 08:15:10;;;;;;;10.00;3.20;;;7.60;99.90;;;;;;5007106;28;20430;-74
2023/11/24 08:17:57;;;;;;;16.30;5.40;;;7.70;99.90;;;;;;5010959;28;20427;-74
2023/11/24 08:20:42;;;;;;;6.50;2.33;;;7.70;99.90;;;;;;5004058;28;20531;-74
2023/11/24 08:23:28;;;;;;;10.10;3.50;;;7.80;99.90;;;;;;5011066;28;20450;-74
2023/11/24 08:26:15;;;;;;;12.13;2.90;;;7.80;99.90;;;;;;5007602;28;20431;-73
2023/11/24 08:29:03;;;;;;;19.23;2.30;;;7.80;99.90;;;;;;5005564;28;20467;-74
2023/11/24 08:31:49;;;;;;;18.60;2.73;;;7.80;99.90;;;;;;5010834;28;20519;-74
2023/11/24 08:34:35;;;;;;;14.07;2.60;;;7.90;99.90;;;;;;5010848;28;20445;-73
2023/11/24 08:37:21;;;;;;;7.50;2.38;;;7.90;99.90;;;;;;5009459;28;20433;-74
2023/11/24 08:40:10;;;;;;;8.00;2.43;;;7.90;99.90;;;;;;5008794;28;20235;-74
2023/11/24 08:42:58;;;;;;;16.23;3.43;;;7.90;99.90;;;;;;5010952;28;20801;-73
2023/11/24 08:45:45;;;;;;;22.10;3.40;;;7.90;99.90;;;;;;5013750;28;20430;-74
2023/11/24 08:48:32;;;;;;;14.83;4.10;;;8.00;99.90;;;;;;5019441;28;20538;-73
2023/11/24 08:51:18;;;;;;;16.77;5.33;;;8.00;99.90;;;;;;5014149;28;20502;-74
2023/11/24 08:54:04;;;;;;;11.73;3.57;;;8.00;99.90;;;;;;5008886;28;20571;-73
2023/11/24 08:56:50;;;;;;;14.07;3.90;;;8.00;99.90;;;;;;5013646;28;20409;-74
2023/11/24 08:59:37;;;;;;;14.83;3.40;;;8.10;99.90;;;;;;5013403;28;20585;-74
2023/11/24 09:02:26;;;;;;;14.13;5.00;;;8.10;99.90;;;;;;5089894;22;21492;-75
2023/11/24 09:05:12;;;;;;;16.50;6.13;;;8.10;99.90;;;;;;5075124;28;20415;-74
2023/11/24 09:07:58;;;;;;;15.83;4.27;;;8.10;99.90;;;;;;5073616;28;20465;-75
2023/11/24 09:10:44;;;;;;;6.43;2.23;;;8.10;99.90;;;;;;5079202;28;20445;-75
2023/11/24 09:13:29;;;;;;;12.83;3.37;;;8.10;99.90;;;;;;5086334;28;20564;-75
2023/11/24 09:16:17;;;;;;;10.67;2.97;;;8.10;99.90;;;;;;5075365;28;20941;-76
2023/11/24 09:19:04;;;;;;;12.90;3.30;;;8.10;99.90;;;;;;5073663;28;20840;-75
2023/11/24 09:21:49;;;;;;;6.97;2.97;;;8.00;99.90;;;;;;5078410;28;20471;-75
2023/11/24 09:24:35;;;;;;;11.10;2.43;;;8.00;99.90;;;;;;5081156;28;20427;-75
2023/11/24 09:27:21;;;;;;;12.43;2.63;;;8.00;99.90;;;;;;5080935;28;20428;-75
2023/11/24 09:30:08;;;;;;;12.10;2.80;;;8.10;99.90;;;;;;5074317;28;20256;-75
2023/11/24 09:32:54;;;;;;;10.33;2.53;;;8.10;99.90;;;;;;5087153;28;20433;-75
2023/11/24 09:35:41;;;;;;;6.97;2.10;;;8.20;99.90;;;;;;5086053;28;20428;-75
2023/11/24 09:38:26;;;;;;;9.00;2.63;;;8.30;99.90;;;;;;5085072;28;20470;-75
2023/11/24 09:41:13;;;;;;;12.17;2.03;;;8.30;99.90;;;;;;5084215;28;20471;-75
2023/11/24 09:43:59;;;;;;;13.13;2.70;;;8.30;99.90;;;;;;5072612;28;20483;-76
2023/11/24 09:46:46;;;;;;;11.13;3.00;;;8.30;99.90;;;;;;5077667;28;21142;-76
2023/11/24 09:49:31;;;;;;;5.97;1.90;;;8.30;99.90;;;;;;5080574;28;20429;-75
2023/11/24 09:52:19;;;;;;;10.40;2.67;;;8.40;99.90;;;;;;5081234;28;20789;-75
2023/11/24 09:55:06;;;;;;;9.63;2.87;;;8.40;99.90;;;;;;5082692;28;20563;-76
2023/11/24 09:57:52;;;;;;;7.90;1.80;;;8.30;99.90;;;;;;5078281;28;20437;-73
2023/11/24 10:00:40;;;;;;;11.90;2.00;;;8.30;99.90;;;;;;5078768;28;21088;-74
2023/11/24 10:03:27;;;;;;;8.93;2.20;;;8.30;99.90;;;;;;5076101;28;20444;-75
2023/11/24 10:06:14;;;;;;;6.73;2.03;;;8.40;99.90;;;;;;5086783;28;20631;-76
2023/11/24 10:09:05;;;;;;;10.73;2.33;;;8.30;99.90;;;;;;5078192;28;20505;-75
2023/11/24 10:11:51;;;;;;;8.37;2.50;;;8.30;99.90;;;;;;5081376;28;20478;-75
2023/11/24 10:14:43;;;;;;;4.90;1.70;;;8.30;99.90;;;;;;5081492;28;20429;-76
2023/11/24 10:17:32;;;;;;;9.07;2.17;;;8.20;99.90;;;;;;5080540;28;20450;-75
2023/11/24 10:20:22;;;;;;;7.83;1.80;;;8.20;99.90;;;;;;5078887;28;20425;-75
2023/11/24 10:23:07;;;;;;;7.13;1.53;;;8.20;99.90;;;;;;5082602;28;20429;-76
2023/11/24 10:25:55;;;;;;;6.30;1.70;;;8.30;99.90;;;;;;5078124;28;20427;-76
2023/11/24 10:28:40;;;;;;;8.13;1.50;;;8.30;99.90;;;;;;5078272;28;20497;-75
2023/11/24 10:31:27;;;;;;;9.23;1.60;;;8.30;99.90;;;;;;5085072;28;21059;-75
2023/11/24 10:34:12;;;;;;;6.63;1.93;;;8.20;99.90;;;;;;5074813;28;20560;-75
2023/11/24 10:36:58;;;;;;;6.30;2.27;;;8.10;99.90;;;;;;5079366;28;20436;-75
2023/11/24 10:39:45;;;;;;;6.37;1.70;;;8.00;99.90;;;;;;5078142;28;20917;-75
2023/11/24 10:42:33;;;;;;;6.67;1.80;;;8.00;99.90;;;;;;5084378;28;20472;-75
2023/11/24 10:45:21;;;;;;;8.43;1.70;;;8.10;99.90;;;;;;5081505;28;21001;-75
2023/11/24 10:48:10;;;;;;;6.07;2.10;;;8.10;99.90;;;;;;5079068;28;20419;-74
2023/11/24 10:51:05;;;;;;;4.23;1.63;;;8.20;99.90;;;;;;5077455;28;20442;-75
2023/11/24 10:53:56;;;;;;;6.20;1.90;;;8.20;99.90;;;;;;5074877;28;20498;-75
2023/11/24 10:56:44;;;;;;;5.00;2.23;;;8.20;99.90;;;;;;5082522;28;20414;-75
2023/11/24 10:59:34;;;;;;;7.50;2.90;;;8.30;99.90;;;;;;5082873;28;20428;-75
2023/11/24 11:02:20;;;;;;;8.13;2.80;;;8.30;99.90;;;;;;5085470;28;20556;-75
2023/11/24 11:05:13;;;;;;;5.10;2.30;;;8.30;99.90;;;;;;5073294;28;20781;-75
2023/11/24 11:08:06;;;;;;;9.10;2.57;;;8.30;99.90;;;;;;5082822;28;20441;-75
2023/11/24 11:11:15;;;;;;;5.87;1.87;;;8.20;99.90;;;;;;5077953;28;20448;-75
2023/11/24 11:14:01;;;;;;;8.50;1.90;;;8.30;99.90;;;;;;5074172;28;20428;-74
2023/11/24 11:16:52;;;;;;;4.40;2.17;;;8.20;99.90;;;;;;5075742;28;20782;-75
2023/11/24 11:19:37;;;;;;;6.00;1.90;;;8.20;99.90;;;;;;5084221;28;20443;-75
2023/11/24 11:22:28;;;;;;;10.57;2.47;;;8.30;99.90;;;;;;5079923;28;20530;-76
2023/11/24 11:25:38;;;;;;;6.23;1.77;;;8.20;99.90;;;;;;5079938;28;20854;-76
2023/11/24 11:28:45;;;;;;;5.10;1.97;;;8.30;99.90;;;;;;5077395;28;20937;-75
2023/11/24 11:31:37;;;;;;;2.90;1.47;;;8.30;99.90;;;;;;5081709;28;20915;-75
2023/11/24 11:34:31;;;;;;;7.33;1.70;;;8.40;99.90;;;;;;5081821;28;21014;-75
2023/11/24 11:37:17;;;;;;;12.03;2.10;;;8.40;99.90;;;;;;5082526;28;20414;-76
2023/11/24 11:40:12;;;;;;;4.37;1.63;;;8.30;99.90;;;;;;5080272;28;20941;-74
2023/11/24 11:43:03;;;;;;;5.70;1.63;;;8.10;99.90;;;;;;5077198;28;20483;-75
2023/11/24 11:45:50;;;;;;;4.85;1.38;;;8.10;99.90;;;;;;5076807;28;20431;-75
2023/11/24 11:48:35;;;;;;;5.63;1.70;;;8.10;99.90;;;;;;5081826;28;20785;-77
2023/11/24 11:51:26;;;;;;;8.45;1.70;;;8.20;99.90;;;;;;5077533;28;20439;-76
2023/11/24 11:54:13;;;;;;;5.45;1.80;;;8.20;99.90;;;;;;5079026;28;20203;-76
2023/11/24 11:56:58;;;;;;;9.20;2.15;;;8.10;99.90;;;;;;5077375;28;20286;-75
2023/11/24 11:59:46;;;;;;;5.00;1.50;;;7.90;99.90;;;;;;5077365;28;20200;-76
2023/11/24 12:02:32;;;;;;;10.18;2.17;;;7.90;99.90;;;;;;5073941;28;20476;-76
2023/11/24 12:05:21;;;;;;;6.60;1.57;;;7.80;99.90;;;;;;5077965;28;20198;-76
2023/11/24 12:08:08;;;;;;;4.20;1.45;;;7.80;99.90;;;;;;5072039;28;20456;-75
2023/11/24 12:10:54;;;;;;;4.70;1.50;;;7.60;99.90;;;;;;5073977;28;20292;-75
2023/11/24 12:13:39;;;;;;;4.18;1.35;;;7.50;99.90;;;;;;5079092;28;20944;-75
2023/11/24 12:16:32;;;;;;;8.75;1.60;;;7.50;99.90;;;;;;5079823;28;20290;-75
2023/11/24 12:19:18;;;;;;;4.15;1.35;;;7.50;99.90;;;;;;5072788;28;20220;-75
2023/11/24 12:22:05;;;;;;;6.93;1.83;;;7.50;99.90;;;;;;5083696;28;20361;-75
2023/11/24 12:24:53;;;;;;;5.75;1.63;;;7.50;99.90;;;;;;5080442;28;20577;-76
2023/11/24 12:27:40;;;;;;;3.30;1.65;;;7.40;99.90;;;;;;5082921;28;20199;-75
2023/11/24 12:30:26;;;;;;;7.57;1.90;;;7.30;99.90;;;;;;5087111;28;20208;-75
2023/11/24 12:33:18;;;;;;;7.97;2.00;;;7.40;99.90;;;;;;5077780;28;20516;-76
2023/11/24 12:36:06;;;;;;;5.53;1.50;;;7.40;99.90;;;;;;5071714;28;20485;-76
2023/11/24 12:38:53;;;;;;;4.50;1.90;;;7.50;99.90;;;;;;5078096;28;20270;-76
2023/11/24 12:41:42;;;;;;;4.20;1.40;;;7.50;99.90;;;;;;5073636;28;20476;-76
2023/11/24 12:44:30;;;;;;;7.30;1.87;;;7.50;99.90;;;;;;5078576;28;21045;-75
2023/11/24 12:47:19;;;;;;;11.50;2.03;;;7.40;99.90;;;;;;5073411;28;20957;-76
2023/11/24 12:50:10;;;;;;;8.23;1.60;;;7.50;99.90;;;;;;5078823;28;20291;-77
2023/11/24 12:52:57;;;;;;;10.30;1.63;;;7.50;99.90;;;;;;5073849;28;20825;-75
2023/11/24 12:55:43;;;;;;;4.70;1.50;;;7.40;99.90;;;;;;5070196;28;20457;-76
2023/11/24 12:58:30;;;;;;;3.22;1.48;;;7.30;99.90;;;;;;5071997;28;20534;-76
2023/11/24 13:01:16;;;;;;;5.27;1.80;;;7.20;99.90;;;;;;5070836;28;20280;-76
2023/11/24 13:04:03;;;;;;;5.28;1.52;;;7.20;99.90;;;;;;5080688;28;20427;-76
2023/11/24 13:06:49;;;;;;;4.03;1.07;;;7.00;99.90;;;;;;5072002;28;20703;-76
2023/11/24 13:09:35;;;;;;;2.43;1.40;;;7.00;99.90;;;;;;5075070;28;20565;-75
2023/11/24 13:12:20;;;;;;;3.28;1.13;;;6.90;99.90;;;;;;5072930;28;20466;-75
2023/11/24 13:15:09;;;;;;;3.10;1.20;;;6.80;99.90;;;;;;5074063;28;20204;-75
2023/11/24 13:17:55;;;;;;;4.88;1.00;;;6.70;99.90;;;;;;5084771;28;20721;-76
2023/11/24 13:20:41;;;;;;;2.67;1.33;;;6.70;99.90;;;;;;5082512;28;20286;-76
2023/11/24 13:23:26;;;;;;;4.17;0.93;;;6.70;99.90;;;;;;5085153;28;20305;-75
2023/11/24 13:26:12;;;;;;;2.90;0.93;;;6.80;99.90;;;;;;5078299;28;20447;-75
2023/11/24 13:28:58;;;;;;;1.85;0.75;;;6.80;99.90;;;;;;5080800;28;20466;-76
2023/11/24 13:31:45;;;;;;;2.80;1.10;;;6.80;99.90;;;;;;5086234;28;20237;-75
2023/11/24 13:34:31;;;;;;;4.90;1.60;;;6.80;99.90;;;;;;5076051;28;20949;-74
2023/11/24 13:37:17;;;;;;;2.40;1.00;;;6.80;99.90;;;;;;5075019;28;20439;-76
2023/11/24 13:40:03;;;;;;;2.60;0.93;;;6.80;99.90;;;;;;5077178;28;20208;-76
2023/11/24 13:42:49;;;;;;;2.65;1.10;;;6.80;99.90;;;;;;5076670;28;20291;-75
2023/11/24 13:45:35;;;;;;;8.97;1.20;;;6.70;99.90;;;;;;5087969;28;20220;-76
2023/11/24 13:48:23;;;;;;;4.07;2.22;;;6.70;99.90;;;;;;5072547;28;20448;-75
2023/11/24 13:51:09;;;;;;;2.15;1.08;;;6.70;99.90;;;;;;5076408;28;20221;-76
2023/11/24 13:53:55;;;;;;;11.32;1.40;;;6.70;99.90;;;;;;5065320;28;20739;-75
2023/11/24 13:56:40;;;;;;;3.93;2.10;;;6.80;99.90;;;;;;5068041;28;20232;-76
2023/11/24 13:59:26;;;;;;;3.20;1.83;;;6.80;99.90;;;;;;5076125;28;20447;-76
2023/11/24 14:02:12;;;;;;;4.37;2.10;;;6.90;99.90;;;;;;5078375;28;20228;-75
2023/11/24 14:04:59;;;;;;;1.90;1.23;;;6.90;99.90;;;;;;5079710;28;20447;-76
2023/11/24 14:07:44;;;;;;;2.47;1.03;;;6.90;99.90;;;;;;5073810;28;20452;-75
2023/11/24 14:10:30;;;;;;;2.70;0.98;;;7.00;99.90;;;;;;5084221;28;20461;-76
2023/11/24 14:13:15;;;;;;;2.13;1.10;;;6.90;99.90;;;;;;5077885;28;20205;-76
2023/11/24 14:16:01;;;;;;;5.15;2.13;;;6.90;99.90;;;;;;5079068;28;20652;-75
2023/11/24 14:18:47;;;;;;;2.53;1.15;;;6.90;99.90;;;;;;5081101;28;20690;-76
2023/11/24 14:21:36;;;;;;;3.77;1.47;;;6.90;99.90;;;;;;5081761;28;20290;-76
2023/11/24 14:24:22;;;;;;;6.17;1.27;;;6.70;99.90;;;;;;5076024;28;20514;-75
2023/11/24 14:27:07;;;;;;;4.55;1.80;;;6.80;99.90;;;;;;5074811;28;20435;-76
2023/11/24 14:29:53;;;;;;;4.90;1.25;;;6.70;99.90;;;;;;5082191;28;20211;-76
2023/11/24 14:32:39;;;;;;;1.67;0.93;;;6.70;99.90;;;;;;5070581;28;20212;-75